Time;durP1;ratioP1;P1;durP2;ratioP2;P2;SDS_P1;SDS_P2;PMS_P1;PMS_P2;Temp;Humidity;BMP_temperature;BMP_pressure;BME280_temperature;BME280_humidity;BME280_pressure;Samples;Min_cycle;Max_cycle;Signal;HPM_P1;HPM_P2
2021/01/02 00:01:00;;;;;;;26.70;13.05;;;;;;;2.42;nan;95927.09;4883600;29;20299;-67
2021/01/02 00:04:01;;;;;;;26.15;12.88;;;;;;;2.52;nan;95930.13;4883142;29;20655;-67
2021/01/02 00:06:57;;;;;;;32.22;14.20;;;;;;;2.53;nan;95927.50;4880451;29;20603;-69
2021/01/02 00:09:26;;;;;;;39.17;15.30;;;;;;;2.40;nan;95925.50;4882063;29;20272;-67
2021/01/02 00:12:17;;;;;;;23.52;11.65;;;;;;;2.52;nan;95920.72;4882069;29;20751;-67
2021/01/02 00:14:58;;;;;;;22.17;10.85;;;;;;;2.58;nan;95925.56;4883404;29;20603;-67
2021/01/02 00:18:05;;;;;;;22.98;12.38;;;;;;;2.59;nan;95929.81;4879088;29;20239;-67
2021/01/02 00:20:53;;;;;;;27.48;12.35;;;;;;;2.63;nan;95931.34;4870638;29;20296;-67
2021/01/02 00:23:30;;;;;;;21.70;11.93;;;;;;;2.64;nan;95929.63;4879771;29;20234;-66
2021/01/02 00:26:05;;;;;;;23.27;12.35;;;;;;;2.58;nan;95927.31;4880809;29;20219;-66
2021/01/02 00:28:37;;;;;;;21.42;11.68;;;;;;;2.59;nan;95932.38;4881975;29;20670;-66
2021/01/02 00:31:32;;;;;;;24.55;13.40;;;;;;;2.68;nan;95920.88;4882855;29;20289;-66
2021/01/02 00:34:22;;;;;;;21.75;11.02;;;;;;;2.69;nan;95920.84;4881283;29;20300;-66
2021/01/02 00:37:01;;;;;;;25.13;12.00;;;;;;;2.71;nan;95925.91;4882094;29;20313;-65
2021/01/02 00:39:40;;;;;;;20.50;10.63;;;;;;;2.70;nan;95922.50;4882802;29;20252;-66
2021/01/02 00:42:12;;;;;;;24.50;12.50;;;;;;;2.69;nan;95920.84;4881838;29;20357;-66
2021/01/02 00:44:41;;;;;;;22.77;11.18;;;;;;;2.76;nan;95924.81;4886420;29;20636;-66
2021/01/02 00:47:10;;;;;;;19.52;11.40;;;;;;;2.81;nan;95925.44;4881424;29;20226;-67
2021/01/02 00:49:38;;;;;;;21.73;11.90;;;;;;;2.86;nan;95920.94;4882016;29;20191;-66
2021/01/02 00:52:16;;;;;;;20.60;10.10;;;;;;;2.81;nan;95924.59;4882543;29;20774;-67
2021/01/02 00:54:57;;;;;;;20.58;11.00;;;;;;;2.82;nan;95919.41;4882598;29;20204;-66
2021/01/02 00:57:45;;;;;;;28.50;12.13;;;;;;;2.86;nan;95926.06;4882485;29;20252;-66
2021/01/02 01:00:16;;;;;;;26.65;11.52;;;;;;;2.87;nan;95930.31;4876415;29;20910;-67
2021/01/02 01:03:02;;;;;;;26.52;11.55;;;;;;;2.83;nan;95931.34;4881408;29;20311;-66
2021/01/02 01:05:34;;;;;;;19.73;9.80;;;;;;;2.83;nan;95921.09;4882985;29;20234;-68
2021/01/02 01:08:02;;;;;;;19.70;11.07;;;;;;;2.82;nan;95914.28;4879802;29;20759;-66
2021/01/02 01:10:31;;;;;;;24.05;11.27;;;;;;;2.79;nan;95924.66;4881625;29;20197;-70
2021/01/02 01:13:01;;;;;;;23.17;11.65;;;;;;;2.84;nan;95917.59;4881555;29;20295;-67
2021/01/02 01:15:28;;;;;;;22.98;12.73;;;;;;;2.87;nan;95924.34;4882472;29;20291;-68
2021/01/02 01:18:05;;;;;;;26.48;13.75;;;;;;;2.81;nan;95920.28;4883582;29;20737;-67
2021/01/02 01:20:32;;;;;;;28.50;12.50;;;;;;;2.83;nan;95926.22;4883307;29;20532;-69
2021/01/02 01:23:26;;;;;;;26.58;12.95;;;;;;;2.84;nan;95927.88;4880496;29;20232;-67
2021/01/02 01:26:15;;;;;;;28.45;12.48;;;;;;;2.87;nan;95932.88;4885322;29;20612;-68
2021/01/02 01:28:47;;;;;;;26.48;12.30;;;;;;;2.85;nan;95933.84;4880624;29;20763;-68
2021/01/02 01:31:17;;;;;;;27.13;12.70;;;;;;;2.85;nan;95936.41;4876120;29;20202;-68
2021/01/02 01:33:48;;;;;;;28.50;12.23;;;;;;;2.86;nan;95946.63;4887011;29;20240;-68
2021/01/02 01:36:17;;;;;;;26.60;11.95;;;;;;;2.92;nan;95941.22;4879639;29;20205;-68
2021/01/02 01:38:45;;;;;;;29.27;13.55;;;;;;;2.94;nan;95947.13;4880755;29;20756;-68
2021/01/02 01:41:13;;;;;;;28.90;12.38;;;;;;;2.93;nan;95945.47;4875376;29;20718;-68
2021/01/02 01:44:18;;;;;;;24.45;12.43;;;;;;;2.81;nan;95938.28;4881621;29;20237;-68
2021/01/02 01:46:52;;;;;;;27.77;12.75;;;;;;;2.91;nan;95951.56;4864088;29;20618;-68
2021/01/02 01:49:48;;;;;;;27.33;11.23;;;;;;;2.88;nan;95944.00;4880244;29;20304;-67
2021/01/02 01:52:30;;;;;;;22.33;12.18;;;;;;;2.80;nan;95940.94;4869406;29;20898;-67
2021/01/02 01:55:06;;;;;;;26.00;10.93;;;;;;;2.82;nan;95942.53;4879242;29;20544;-68
2021/01/02 01:57:37;;;;;;;24.30;12.80;;;;;;;2.81;nan;95932.31;4879114;29;20626;-68
2021/01/02 02:00:16;;;;;;;25.70;11.43;;;;;;;2.79;nan;95940.06;4881602;29;20614;-67
2021/01/02 02:03:00;;;;;;;23.88;11.70;;;;;;;2.68;nan;95947.41;4880939;29;20298;-68
2021/01/02 02:05:38;;;;;;;29.70;13.35;;;;;;;2.61;nan;95945.16;4880964;29;20194;-68
2021/01/02 02:08:08;;;;;;;27.52;13.32;;;;;;;2.58;nan;95940.97;4879255;29;20316;-67
2021/01/02 02:10:36;;;;;;;29.00;12.15;;;;;;;2.54;nan;95942.03;4881982;29;20616;-68
2021/01/02 02:13:13;;;;;;;27.48;12.02;;;;;;;2.62;nan;95946.81;4879979;29;20751;-68
2021/01/02 02:15:47;;;;;;;31.58;14.27;;;;;;;2.74;nan;95941.19;4881744;29;20228;-67
2021/01/02 02:18:20;;;;;;;30.10;13.93;;;;;;;2.78;nan;95948.69;4875684;29;20315;-68
2021/01/02 02:20:48;;;;;;;29.80;13.75;;;;;;;2.77;nan;95941.88;4885915;29;20445;-67
2021/01/02 02:23:24;;;;;;;28.75;13.48;;;;;;;2.76;nan;95947.94;4879100;29;20390;-68
2021/01/02 02:26:04;;;;;;;27.85;12.20;;;;;;;2.75;nan;95953.97;4880403;29;20408;-68
2021/01/02 02:29:22;;;;;;;32.47;14.05;;;;;;;2.74;nan;95946.31;4878433;29;20230;-67
2021/01/02 02:31:50;;;;;;;30.13;13.00;;;;;;;2.69;nan;95936.25;4878778;29;20292;-68
2021/01/02 02:34:18;;;;;;;29.63;13.70;;;;;;;2.78;nan;95946.13;4879566;29;20766;-67
2021/01/02 02:36:45;;;;;;;25.45;11.95;;;;;;;2.78;nan;95947.88;4883653;29;20622;-67
2021/01/02 02:39:14;;;;;;;24.92;11.80;;;;;;;2.79;nan;95950.34;4875629;29;20304;-67
2021/01/02 02:41:43;;;;;;;25.90;11.70;;;;;;;2.83;nan;95957.06;4880591;29;20625;-67
2021/01/02 02:44:11;;;;;;;30.55;13.35;;;;;;;2.80;nan;95949.44;4880694;29;20253;-67
2021/01/02 02:46:42;;;;;;;28.75;12.70;;;;;;;2.85;nan;95950.09;4881095;29;20553;-67
2021/01/02 02:49:11;;;;;;;28.67;12.57;;;;;;;2.88;nan;95952.53;4879974;29;20229;-67
2021/01/02 02:51:54;;;;;;;28.60;12.70;;;;;;;2.88;nan;95957.66;4878947;29;20249;-67
2021/01/02 02:54:23;;;;;;;29.77;12.68;;;;;;;2.76;nan;95940.22;4876760;29;20703;-68
2021/01/02 02:56:50;;;;;;;28.30;13.52;;;;;;;2.85;nan;95960.38;4878211;29;20319;-67
2021/01/02 02:59:17;;;;;;;29.13;13.73;;;;;;;2.88;nan;95960.25;4876890;29;20796;-67
2021/01/02 03:01:47;;;;;;;27.65;13.27;;;;;;;2.59;nan;95916.16;4887626;29;20893;-68
2021/01/02 03:04:14;;;;;;;31.40;13.05;;;;;;;2.88;nan;95962.00;4874976;29;20490;-68
2021/01/02 03:06:41;;;;;;;29.95;13.20;;;;;;;2.93;nan;95963.47;4879623;29;20256;-68
2021/01/02 03:09:10;;;;;;;29.52;13.73;;;;;;;2.99;nan;95962.34;4879914;29;20685;-68
2021/01/02 03:11:37;;;;;;;33.35;12.50;;;;;;;2.98;nan;95952.97;4879790;29;20226;-68
2021/01/02 03:14:03;;;;;;;24.50;11.30;;;;;;;2.96;nan;95957.34;4879580;29;20671;-65
2021/01/02 03:16:31;;;;;;;27.20;13.68;;;;;;;2.96;nan;95954.78;4878974;29;20237;-67
2021/01/02 03:19:00;;;;;;;27.23;12.70;;;;;;;2.99;nan;95960.63;4880358;29;20610;-67
2021/01/02 03:21:27;;;;;;;25.73;12.77;;;;;;;2.99;nan;95964.91;4878541;29;20664;-67
2021/01/02 03:23:57;;;;;;;27.65;13.68;;;;;;;2.95;nan;95951.38;4881059;29;20292;-67
2021/01/02 03:26:24;;;;;;;25.00;12.00;;;;;;;2.98;nan;95960.69;4882732;29;20727;-67
2021/01/02 03:28:52;;;;;;;26.33;12.40;;;;;;;3.03;nan;95958.75;4883239;29;20407;-68
2021/01/02 03:31:20;;;;;;;36.17;13.40;;;;;;;3.03;nan;95949.31;4882628;29;20206;-67
2021/01/02 03:33:47;;;;;;;25.30;11.77;;;;;;;3.00;nan;95959.72;4883713;29;20229;-68
2021/01/02 03:36:14;;;;;;;30.40;12.85;;;;;;;3.05;nan;95952.66;4886265;29;20295;-67
2021/01/02 03:38:53;;;;;;;23.02;11.43;;;;;;;3.01;nan;95950.28;4883513;29;20315;-68
2021/01/02 03:41:20;;;;;;;24.88;12.40;;;;;;;3.04;nan;95957.84;4879238;29;20234;-67
2021/01/02 03:43:48;;;;;;;21.88;10.40;;;;;;;3.01;nan;95940.84;4882290;29;20907;-67
2021/01/02 03:46:15;;;;;;;29.08;11.90;;;;;;;2.99;nan;95952.06;4883606;29;20594;-68
2021/01/02 03:48:42;;;;;;;25.58;11.68;;;;;;;2.99;nan;95934.94;4883746;29;21071;-67
2021/01/02 03:51:08;;;;;;;25.83;12.85;;;;;;;2.98;nan;95935.84;4882927;29;20688;-66
2021/01/02 03:53:35;;;;;;;26.65;13.35;;;;;;;3.00;nan;95934.03;4881966;29;20676;-67
2021/01/02 03:56:02;;;;;;;28.00;13.38;;;;;;;3.02;nan;95934.78;4884039;29;20197;-67
2021/01/02 03:58:29;;;;;;;25.85;12.27;;;;;;;3.01;nan;95935.69;4882470;29;20309;-68
2021/01/02 04:00:57;;;;;;;26.77;12.95;;;;;;;2.99;nan;95937.50;4880974;29;20284;-68
2021/01/02 04:03:23;;;;;;;28.95;13.18;;;;;;;3.04;nan;95942.44;4882486;29;20234;-68
2021/01/02 04:05:50;;;;;;;26.95;12.65;;;;;;;3.00;nan;95944.31;4882186;29;20259;-66
2021/01/02 04:08:17;;;;;;;28.73;13.75;;;;;;;2.95;nan;95940.28;4882072;29;20252;-67
2021/01/02 04:10:48;;;;;;;27.13;12.85;;;;;;;3.02;nan;95939.09;4882678;29;20688;-67
2021/01/02 04:13:17;;;;;;;25.95;12.40;;;;;;;2.99;nan;95934.94;4877152;29;20257;-66
2021/01/02 04:15:43;;;;;;;26.58;12.70;;;;;;;2.98;nan;95943.53;4882524;29;20311;-67
2021/01/02 04:18:11;;;;;;;26.13;12.30;;;;;;;2.94;nan;95939.44;4881822;29;20312;-67
2021/01/02 04:20:38;;;;;;;27.30;12.55;;;;;;;2.92;nan;95938.66;4883089;29;20326;-69
2021/01/02 04:23:05;;;;;;;28.13;12.57;;;;;;;2.87;nan;95932.88;4881984;29;20246;-68
2021/01/02 04:25:31;;;;;;;25.52;12.25;;;;;;;2.97;nan;95944.44;4888095;29;20226;-68
2021/01/02 04:27:58;;;;;;;29.35;13.80;;;;;;;3.04;nan;95945.00;4882941;29;20311;-68
2021/01/02 04:30:25;;;;;;;29.73;12.20;;;;;;;3.03;nan;95944.16;4883703;29;20591;-68
2021/01/02 04:32:52;;;;;;;31.38;14.18;;;;;;;2.81;nan;95938.28;4882603;29;20230;-68
2021/01/02 04:35:20;;;;;;;22.95;12.20;;;;;;;2.81;nan;95938.28;4884144;29;20625;-68
2021/01/02 04:37:46;;;;;;;30.20;12.98;;;;;;;2.74;nan;95949.75;4881820;29;20271;-68
2021/01/02 04:40:14;;;;;;;32.05;12.00;;;;;;;2.77;nan;95951.31;4883195;29;20643;-69
2021/01/02 04:42:42;;;;;;;21.83;12.20;;;;;;;2.81;nan;95943.41;4882528;29;20756;-69
2021/01/02 04:45:11;;;;;;;27.33;13.85;;;;;;;2.72;nan;95943.81;4889610;29;20718;-68
2021/01/02 04:47:39;;;;;;;25.50;12.55;;;;;;;2.77;nan;95941.88;4887529;29;20621;-69
2021/01/02 04:50:08;;;;;;;30.30;14.07;;;;;;;2.82;nan;95934.84;4881992;29;20746;-68
2021/01/02 04:52:36;;;;;;;24.77;12.13;;;;;;;2.88;nan;95931.97;4882247;29;20250;-69
2021/01/02 04:55:04;;;;;;;26.38;12.43;;;;;;;2.92;nan;95946.38;4882028;29;20205;-68
2021/01/02 04:57:34;;;;;;;25.83;12.65;;;;;;;2.91;nan;95936.16;4882038;29;20312;-68
2021/01/02 05:00:04;;;;;;;28.00;11.57;;;;;;;2.96;nan;95941.94;4881854;29;20296;-68
2021/01/02 05:02:33;;;;;;;27.02;14.18;;;;;;;2.99;nan;95946.94;4886519;29;20232;-67
2021/01/02 05:05:01;;;;;;;28.02;12.60;;;;;;;2.99;nan;95955.50;4882348;29;20663;-66
2021/01/02 05:07:29;;;;;;;24.67;11.85;;;;;;;2.96;nan;95949.66;4881347;29;20217;-67
2021/01/02 05:09:58;;;;;;;27.42;13.00;;;;;;;3.04;nan;95952.72;4880010;29;20824;-67
2021/01/02 05:12:29;;;;;;;25.63;12.00;;;;;;;3.05;nan;95952.66;4883984;29;20248;-66
2021/01/02 05:15:08;;;;;;;28.35;12.90;;;;;;;3.08;nan;95954.28;4882839;29;20303;-67
2021/01/02 05:17:36;;;;;;;26.40;11.77;;;;;;;3.05;nan;95957.81;4881075;29;20315;-67
2021/01/02 05:20:05;;;;;;;28.88;13.50;;;;;;;3.06;nan;95958.63;4882969;29;20595;-68
2021/01/02 05:22:32;;;;;;;30.42;13.90;;;;;;;3.00;nan;95949.44;4880912;29;20774;-67
2021/01/02 05:25:18;;;;;;;26.05;12.55;;;;;;;3.01;nan;95951.09;4881302;29;20647;-66
2021/01/02 05:27:47;;;;;;;26.10;12.45;;;;;;;3.01;nan;95963.97;4883994;29;20751;-67
2021/01/02 05:30:20;;;;;;;27.48;12.98;;;;;;;3.01;nan;95961.38;4881249;29;20684;-66
2021/01/02 05:33:05;;;;;;;26.48;13.10;;;;;;;3.05;nan;95962.94;4880556;29;20618;-66
2021/01/02 05:35:39;;;;;;;28.02;13.18;;;;;;;3.06;nan;95964.59;4886965;29;20259;-67
2021/01/02 05:38:24;;;;;;;26.30;11.85;;;;;;;3.09;nan;95963.66;4881535;29;20225;-66
2021/01/02 05:40:54;;;;;;;26.05;12.57;;;;;;;3.14;nan;95957.41;4884058;29;20748;-66
2021/01/02 05:43:23;;;;;;;24.63;11.30;;;;;;;3.12;nan;95954.06;4881353;29;20264;-66
2021/01/02 05:45:51;;;;;;;26.35;12.50;;;;;;;3.13;nan;95954.88;4881461;29;20296;-65
2021/01/02 05:48:21;;;;;;;26.40;13.68;;;;;;;3.08;nan;95952.50;4880177;29;20656;-66
2021/01/02 05:50:54;;;;;;;26.55;12.40;;;;;;;3.06;nan;95956.91;4880759;29;20492;-66
2021/01/02 05:53:26;;;;;;;34.65;14.68;;;;;;;3.04;nan;95957.84;4880686;29;20256;-66
2021/01/02 05:56:06;;;;;;;32.35;15.20;;;;;;;2.86;nan;95962.03;4880650;29;20232;-66
2021/01/02 05:58:39;;;;;;;32.05;14.45;;;;;;;2.81;nan;95958.81;4881409;29;20687;-67
2021/01/02 06:01:08;;;;;;;33.67;14.55;;;;;;;2.86;nan;95961.22;4882842;29;20221;-67
2021/01/02 06:03:36;;;;;;;35.30;14.43;;;;;;;2.86;nan;95959.47;4881288;29;20316;-66
2021/01/02 06:06:04;;;;;;;34.47;15.32;;;;;;;2.79;nan;95975.22;4880759;29;20296;-66
2021/01/02 06:08:40;;;;;;;39.67;16.88;;;;;;;2.80;nan;95961.47;4880587;29;20227;-67
2021/01/02 06:11:10;;;;;;;35.90;16.35;;;;;;;2.80;nan;95972.56;4881408;29;20351;-67
2021/01/02 06:13:39;;;;;;;33.47;16.30;;;;;;;2.74;nan;95972.84;4879965;29;20653;-67
2021/01/02 06:16:08;;;;;;;38.50;15.70;;;;;;;2.76;nan;95971.06;4881431;29;20673;-67
2021/01/02 06:18:37;;;;;;;36.05;15.88;;;;;;;2.80;nan;95964.88;4880287;29;20717;-66
2021/01/02 06:21:07;;;;;;;34.50;15.73;;;;;;;2.81;nan;95969.09;4880606;29;20692;-66
2021/01/02 06:23:36;;;;;;;39.38;14.70;;;;;;;2.86;nan;95967.19;4879956;29;20238;-67
2021/01/02 06:26:04;;;;;;;35.03;14.48;;;;;;;2.84;nan;95963.00;4881360;29;20229;-67
2021/01/02 06:28:34;;;;;;;35.10;16.02;;;;;;;2.86;nan;95964.63;4884176;29;20226;-69
2021/01/02 06:31:04;;;;;;;38.45;14.68;;;;;;;2.88;nan;95960.25;4880547;29;20289;-67
2021/01/02 06:33:31;;;;;;;36.63;15.65;;;;;;;2.87;nan;95966.28;4879119;29;20339;-67
2021/01/02 06:35:58;;;;;;;39.08;16.00;;;;;;;2.85;nan;95960.38;4881214;29;20888;-67
2021/01/02 06:38:27;;;;;;;39.75;16.05;;;;;;;2.83;nan;95961.34;4880099;29;20532;-66
2021/01/02 06:40:55;;;;;;;32.03;13.15;;;;;;;2.79;nan;95970.91;4888210;29;20240;-67
2021/01/02 06:43:24;;;;;;;34.75;13.95;;;;;;;2.80;nan;95972.56;4879977;29;20593;-67
2021/01/02 06:46:01;;;;;;;30.05;14.38;;;;;;;2.80;nan;95967.44;4880108;29;20263;-67
2021/01/02 06:48:37;;;;;;;28.65;12.75;;;;;;;2.77;nan;95961.59;4879181;29;20980;-67
2021/01/02 06:51:28;;;;;;;27.67;12.10;;;;;;;2.83;nan;95962.19;4875096;29;20662;-67
2021/01/02 06:53:55;;;;;;;29.33;13.60;;;;;;;2.84;nan;95966.41;4878703;29;20299;-67
2021/01/02 06:56:34;;;;;;;34.75;13.40;;;;;;;2.81;nan;95965.72;4880299;29;20629;-67
2021/01/02 06:59:01;;;;;;;31.00;12.48;;;;;;;2.69;nan;95954.22;4881821;29;20667;-67
2021/01/02 07:01:45;;;;;;;29.38;12.02;;;;;;;2.74;nan;95967.72;4884237;29;20205;-67
2021/01/02 07:04:12;;;;;;;28.15;12.85;;;;;;;2.80;nan;95961.47;4881266;29;20285;-67
2021/01/02 07:06:40;;;;;;;33.05;13.85;;;;;;;2.82;nan;95965.66;4884328;29;20235;-67
2021/01/02 07:09:23;;;;;;;24.83;11.10;;;;;;;2.75;nan;95964.25;4884154;29;20213;-67
2021/01/02 07:11:52;;;;;;;25.10;10.80;;;;;;;2.74;nan;95967.72;4882670;29;20811;-67
2021/01/02 07:14:21;;;;;;;30.40;12.70;;;;;;;2.71;nan;95972.97;4887460;29;20260;-67
2021/01/02 07:16:51;;;;;;;36.28;13.27;;;;;;;2.73;nan;95972.91;4886876;29;20281;-68
2021/01/02 07:19:34;;;;;;;29.55;13.25;;;;;;;2.70;nan;95976.44;4883591;29;20673;-68
2021/01/02 07:22:02;;;;;;;28.42;12.40;;;;;;;2.79;nan;95976.03;4883499;29;20229;-67
2021/01/02 07:24:31;;;;;;;26.52;12.57;;;;;;;2.69;nan;95969.63;4883618;29;20288;-68
2021/01/02 07:26:59;;;;;;;41.00;13.52;;;;;;;2.74;nan;95992.56;4881678;29;20608;-68
2021/01/02 07:29:26;;;;;;;31.40;12.85;;;;;;;2.72;nan;95990.03;4884030;29;20715;-67
2021/01/02 07:32:04;;;;;;;27.75;11.95;;;;;;;2.79;nan;95985.50;4883438;29;20227;-68
2021/01/02 07:34:30;;;;;;;29.35;12.25;;;;;;;2.79;nan;95990.66;4883901;29;20307;-67
2021/01/02 07:37:02;;;;;;;29.85;12.35;;;;;;;2.77;nan;95988.13;4883526;29;20321;-67
2021/01/02 07:39:29;;;;;;;31.23;12.88;;;;;;;2.82;nan;95975.94;4884433;29;20217;-68
2021/01/02 07:41:57;;;;;;;33.30;13.95;;;;;;;2.81;nan;95971.66;4884670;29;20592;-67
2021/01/02 07:44:24;;;;;;;30.08;13.32;;;;;;;2.85;nan;95974.94;4884351;29;20622;-67
2021/01/02 07:46:52;;;;;;;33.88;15.80;;;;;;;2.78;nan;95979.53;4883730;29;20263;-68
2021/01/02 07:49:20;;;;;;;41.40;15.07;;;;;;;2.81;nan;95984.50;4884141;29;20205;-68
2021/01/02 07:51:50;;;;;;;37.05;15.90;;;;;;;2.83;nan;95989.59;4883698;29;20229;-67
2021/01/02 07:54:34;;;;;;;134.10;55.95;;;;;;;2.85;nan;95991.22;4884403;29;20236;-68
2021/01/02 07:57:02;;;;;;;60.63;25.00;;;;;;;2.86;nan;95995.44;4883588;29;20226;-68
2021/01/02 07:59:31;;;;;;;40.67;14.00;;;;;;;2.92;nan;96002.06;4889387;29;20308;-67
2021/01/02 08:02:00;;;;;;;40.08;16.30;;;;;;;2.87;nan;95999.69;4887395;28;20209;-67
2021/01/02 08:04:29;;;;;;;34.42;14.85;;;;;;;2.81;nan;95994.78;4885787;29;20568;-68
2021/01/02 08:06:57;;;;;;;32.40;14.30;;;;;;;2.86;nan;95992.88;4883983;29;20327;-68
2021/01/02 08:09:25;;;;;;;36.47;15.93;;;;;;;2.81;nan;95989.66;4883731;29;20231;-68
2021/01/02 08:11:58;;;;;;;40.08;15.95;;;;;;;2.84;nan;95997.25;4884040;29;20623;-67
2021/01/02 08:14:27;;;;;;;31.30;13.57;;;;;;;2.70;nan;95991.84;4882765;29;20217;-68
2021/01/02 08:17:03;;;;;;;40.85;16.85;;;;;;;2.74;nan;95998.53;4882296;29;20284;-67
2021/01/02 08:19:33;;;;;;;41.65;15.48;;;;;;;2.79;nan;96006.88;4883729;29;20611;-68
2021/01/02 08:22:01;;;;;;;37.85;15.15;;;;;;;2.71;nan;95985.00;4881099;29;20322;-68
2021/01/02 08:24:28;;;;;;;39.75;15.00;;;;;;;2.81;nan;96002.50;4882386;29;20622;-68
2021/01/02 08:26:56;;;;;;;40.13;16.50;;;;;;;2.85;nan;95996.34;4882439;29;20304;-67
2021/01/02 08:29:26;;;;;;;34.97;15.35;;;;;;;2.88;nan;96003.09;4882723;29;20193;-68
2021/01/02 08:31:58;;;;;;;38.30;16.10;;;;;;;2.90;nan;96004.72;4887562;29;20313;-68
2021/01/02 08:34:31;;;;;;;39.35;14.80;;;;;;;2.89;nan;95997.06;4882926;29;20581;-68
2021/01/02 08:37:00;;;;;;;34.38;14.80;;;;;;;2.96;nan;96001.03;4885408;29;20614;-67
2021/01/02 08:39:28;;;;;;;35.40;15.07;;;;;;;2.98;nan;96000.09;4885490;29;20766;-68
2021/01/02 08:41:58;;;;;;;34.20;15.07;;;;;;;2.93;nan;96004.56;4889901;29;20749;-66
2021/01/02 08:44:27;;;;;;;31.90;15.00;;;;;;;2.95;nan;96007.91;4883652;29;20614;-67
2021/01/02 08:46:54;;;;;;;32.45;14.75;;;;;;;2.96;nan;96001.91;4881938;29;20249;-67
2021/01/02 08:49:29;;;;;;;30.90;15.07;;;;;;;2.96;nan;95994.19;4882224;29;20506;-67
2021/01/02 08:52:20;;;;;;;33.60;15.30;;;;;;;2.97;nan;95998.41;4877510;29;20929;-66
2021/01/02 08:54:49;;;;;;;32.50;14.30;;;;;;;3.07;nan;95997.13;4882089;29;20313;-67
2021/01/02 08:57:31;;;;;;;28.98;13.10;;;;;;;3.11;nan;96000.41;4881654;29;20732;-67
2021/01/02 09:00:12;;;;;;;37.55;14.70;;;;;;;3.11;nan;95997.81;4879732;29;20362;-67
2021/01/02 09:02:41;;;;;;;29.98;13.80;;;;;;;3.14;nan;95998.53;4881524;29;20329;-67
2021/01/02 09:05:10;;;;;;;31.83;14.98;;;;;;;3.16;nan;95996.72;4886235;29;20316;-66
2021/01/02 09:07:39;;;;;;;28.42;13.30;;;;;;;3.15;nan;96007.91;4881566;29;20264;-67
2021/01/02 09:10:17;;;;;;;32.28;14.15;;;;;;;3.18;nan;95997.50;4881946;29;20615;-67
2021/01/02 09:13:08;;;;;;;30.23;14.65;;;;;;;3.18;nan;96002.66;4881668;29;20672;-67
2021/01/02 09:15:46;;;;;;;33.30;14.52;;;;;;;3.21;nan;95999.94;4880835;29;20197;-67
2021/01/02 09:18:14;;;;;;;31.15;13.55;;;;;;;3.19;nan;96012.03;4881610;29;20296;-67
2021/01/02 09:20:42;;;;;;;29.35;13.43;;;;;;;3.23;nan;96015.31;4883091;29;20239;-67
2021/01/02 09:23:09;;;;;;;31.92;14.75;;;;;;;3.12;nan;96005.47;4880189;29;20792;-67
2021/01/02 09:25:37;;;;;;;32.60;13.18;;;;;;;3.13;nan;96007.16;4881851;29;20237;-67
2021/01/02 09:28:15;;;;;;;29.98;13.80;;;;;;;3.13;nan;96011.44;4885895;29;20286;-67
2021/01/02 09:30:43;;;;;;;50.42;22.25;;;;;;;3.22;nan;96017.03;4880966;29;20713;-67
2021/01/02 09:33:10;;;;;;;97.93;39.05;;;;;;;3.28;nan;96016.78;4880591;29;20568;-67
2021/01/02 09:35:38;;;;;;;35.15;15.13;;;;;;;3.30;nan;96014.97;4884850;29;20209;-67
2021/01/02 09:38:06;;;;;;;29.08;14.55;;;;;;;3.22;nan;96019.59;4880485;29;20239;-67
2021/01/02 09:40:35;;;;;;;36.65;16.00;;;;;;;3.06;nan;95980.03;4888265;29;20716;-67
2021/01/02 09:43:02;;;;;;;32.35;14.35;;;;;;;3.27;nan;96019.41;4880891;29;20620;-67
2021/01/02 09:45:29;;;;;;;31.80;12.32;;;;;;;3.24;nan;96010.06;4880938;29;20202;-67
2021/01/02 09:47:56;;;;;;;30.05;13.57;;;;;;;3.29;nan;96013.28;4878800;29;20696;-67
2021/01/02 09:50:24;;;;;;;32.28;13.77;;;;;;;3.07;nan;96016.84;4880757;29;20583;-67
2021/01/02 09:52:51;;;;;;;24.83;12.65;;;;;;;3.01;nan;96012.78;4879962;29;20691;-68
2021/01/02 09:55:18;;;;;;;27.75;13.13;;;;;;;3.08;nan;96014.22;4880710;29;20720;-67
2021/01/02 09:57:47;;;;;;;30.98;14.93;;;;;;;3.12;nan;96020.91;4880703;29;20754;-67
2021/01/02 10:00:14;;;;;;;32.25;14.15;;;;;;;3.10;nan;96027.81;4880405;29;20417;-67
2021/01/02 10:02:41;;;;;;;36.55;13.48;;;;;;;3.11;nan;96029.53;4880797;29;20737;-67
2021/01/02 10:05:09;;;;;;;30.48;13.00;;;;;;;3.02;nan;96029.88;4882135;29;20606;-67
2021/01/02 10:07:36;;;;;;;36.15;15.43;;;;;;;3.00;nan;96036.00;4880398;29;20227;-67
2021/01/02 10:10:04;;;;;;;27.70;13.85;;;;;;;2.97;nan;96021.53;4880771;29;20260;-67
2021/01/02 10:12:31;;;;;;;31.55;14.82;;;;;;;2.94;nan;96041.41;4883172;29;20252;-67
2021/01/02 10:14:58;;;;;;;32.22;15.32;;;;;;;2.99;nan;96034.31;4879015;29;20235;-67
2021/01/02 10:17:28;;;;;;;24.05;12.77;;;;;;;3.03;nan;96028.97;4880495;29;20303;-67
2021/01/02 10:19:56;;;;;;;28.45;14.13;;;;;;;3.05;nan;96016.91;4881739;29;20223;-67
2021/01/02 10:22:23;;;;;;;25.50;13.07;;;;;;;3.13;nan;96022.56;4880159;29;20282;-66
2021/01/02 10:24:52;;;;;;;44.53;20.33;;;;;;;3.14;nan;96013.09;4878710;29;20287;-67
2021/01/02 10:27:20;;;;;;;73.50;39.75;;;;;;;3.41;nan;96012.78;4879437;29;21172;-67
2021/01/02 10:29:48;;;;;;;35.75;18.10;;;;;;;3.28;nan;96015.91;4885573;29;20208;-68
2021/01/02 10:32:18;;;;;;;28.58;13.52;;;;;;;3.32;nan;96010.56;4879812;29;20631;-68
2021/01/02 10:34:46;;;;;;;24.65;12.52;;;;;;;3.33;nan;96004.56;4880953;29;20682;-67
2021/01/02 10:37:17;;;;;;;26.50;13.13;;;;;;;3.45;nan;96011.72;4883439;29;20313;-67
2021/01/02 10:39:44;;;;;;;24.02;11.90;;;;;;;3.51;nan;96000.31;4876321;29;20292;-67
2021/01/02 10:42:12;;;;;;;25.10;12.40;;;;;;;3.58;nan;96000.00;4880413;29;20380;-68
2021/01/02 10:44:43;;;;;;;22.15;12.55;;;;;;;3.61;nan;95994.69;4882790;29;20722;-67
2021/01/02 10:47:11;;;;;;;21.88;11.73;;;;;;;3.61;nan;95986.97;4882808;29;20224;-67
2021/01/02 10:49:40;;;;;;;25.85;13.50;;;;;;;3.72;nan;95984.78;4879894;29;20234;-67
2021/01/02 10:52:07;;;;;;;26.38;12.70;;;;;;;3.79;nan;95983.59;4879147;29;20243;-67
2021/01/02 10:54:34;;;;;;;21.30;12.13;;;;;;;3.79;nan;95982.75;4880078;29;20743;-67
2021/01/02 10:57:01;;;;;;;23.17;11.48;;;;;;;3.82;nan;95978.28;4878994;29;20661;-67
2021/01/02 10:59:27;;;;;;;27.67;13.65;;;;;;;3.90;nan;95967.66;4879052;29;20201;-67
2021/01/02 11:01:55;;;;;;;22.42;11.77;;;;;;;3.85;nan;95964.47;4879169;29;20275;-67
2021/01/02 11:04:26;;;;;;;26.35;13.23;;;;;;;3.90;nan;95965.09;4879345;29;20201;-67
2021/01/02 11:06:55;;;;;;;18.50;10.50;;;;;;;3.85;nan;95962.72;4878198;29;20660;-67
2021/01/02 11:09:23;;;;;;;22.15;11.45;;;;;;;3.95;nan;95958.81;4879385;29;20289;-67
2021/01/02 11:11:51;;;;;;;17.10;10.27;;;;;;;3.96;nan;95964.81;4879392;29;20752;-67
2021/01/02 11:14:18;;;;;;;17.52;9.80;;;;;;;3.96;nan;95957.09;4879095;29;20698;-67
2021/01/02 11:16:47;;;;;;;20.58;11.10;;;;;;;3.92;nan;95958.13;4879918;29;20548;-67
2021/01/02 11:19:16;;;;;;;17.90;10.25;;;;;;;3.97;nan;95956.19;4873942;29;20228;-67
2021/01/02 11:21:45;;;;;;;18.05;10.13;;;;;;;3.92;nan;95948.69;4878883;29;20241;-67
2021/01/02 11:24:15;;;;;;;24.23;10.50;;;;;;;3.90;nan;95947.06;4878804;29;20617;-67
2021/01/02 11:26:45;;;;;;;19.58;10.85;;;;;;;3.82;nan;95939.69;4878771;29;20739;-67
2021/01/02 11:29:13;;;;;;;23.05;11.80;;;;;;;3.70;nan;95932.56;4874188;29;20518;-67
2021/01/02 11:31:40;;;;;;;22.85;10.85;;;;;;;3.71;nan;95939.38;4878249;29;20225;-67
2021/01/02 11:34:19;;;;;;;65.53;29.30;;;;;;;3.72;nan;95928.16;4874985;29;20529;-67
2021/01/02 11:36:48;;;;;;;32.90;16.20;;;;;;;3.80;nan;95923.50;4883763;29;20868;-66
2021/01/02 11:39:17;;;;;;;24.83;11.18;;;;;;;3.80;nan;95918.34;4877369;29;20205;-67
2021/01/02 11:41:44;;;;;;;20.77;11.10;;;;;;;3.76;nan;95921.97;4881336;29;20273;-67
2021/01/02 11:44:15;;;;;;;20.35;10.20;;;;;;;3.86;nan;95918.06;4878402;29;20195;-67
2021/01/02 11:46:44;;;;;;;20.73;10.77;;;;;;;3.88;nan;95916.25;4881821;29;20233;-67
2021/01/02 11:49:13;;;;;;;22.55;12.05;;;;;;;3.77;nan;95918.50;4882601;29;20870;-67
2021/01/02 11:51:40;;;;;;;20.05;10.90;;;;;;;3.75;nan;95925.44;4882709;29;20296;-67
2021/01/02 11:54:08;;;;;;;26.20;12.68;;;;;;;3.64;nan;95927.69;4882319;29;20326;-67
2021/01/02 11:56:36;;;;;;;19.33;11.73;;;;;;;3.73;nan;95921.28;4881018;29;20282;-67
2021/01/02 11:59:05;;;;;;;22.25;12.68;;;;;;;3.77;nan;95923.66;4881671;29;20759;-67
2021/01/02 12:01:37;;;;;;;21.80;10.93;;;;;;;3.74;nan;95923.78;4880251;29;20421;-67